sensor_id;sensor_type;location;lat;lon;timestamp;P1;durP1;ratioP1;P2;durP2;ratioP2
23498;SDS011;11926;48.120;11.562;2023-05-07T00:02:07;12.15;;;9.30;;
23498;SDS011;11926;48.120;11.562;2023-05-07T00:04:54;12.35;;;9.02;;
23498;SDS011;11926;48.120;11.562;2023-05-07T00:07:43;13.02;;;9.18;;
23498;SDS011;11926;48.120;11.562;2023-05-07T00:10:30;12.38;;;9.85;;
23498;SDS011;11926;48.120;11.562;2023-05-07T00:13:17;13.80;;;9.73;;
23498;SDS011;11926;48.120;11.562;2023-05-07T00:16:05;16.00;;;9.93;;
23498;SDS011;11926;48.120;11.562;2023-05-07T00:18:52;12.05;;;8.60;;
23498;SDS011;11926;48.120;11.562;2023-05-07T00:21:39;12.40;;;8.65;;
23498;SDS011;11926;48.120;11.562;2023-05-07T00:24:28;14.05;;;9.55;;
23498;SDS011;11926;48.120;11.562;2023-05-07T00:27:15;15.30;;;9.95;;
23498;SDS011;11926;48.120;11.562;2023-05-07T00:30:02;15.38;;;9.07;;
23498;SDS011;11926;48.120;11.562;2023-05-07T00:32:50;12.40;;;8.70;;
23498;SDS011;11926;48.120;11.562;2023-05-07T00:35:37;11.30;;;8.48;;
23498;SDS011;11926;48.120;11.562;2023-05-07T00:38:24;13.80;;;9.02;;
23498;SDS011;11926;48.120;11.562;2023-05-07T00:41:13;12.05;;;8.55;;
23498;SDS011;11926;48.120;11.562;2023-05-07T00:44:00;12.40;;;7.97;;
23498;SDS011;11926;48.120;11.562;2023-05-07T00:46:48;12.80;;;9.00;;
23498;SDS011;11926;48.120;11.562;2023-05-07T00:49:37;13.85;;;9.43;;
23498;SDS011;11926;48.120;11.562;2023-05-07T00:52:26;15.38;;;9.82;;
23498;SDS011;11926;48.120;11.562;2023-05-07T00:55:14;12.70;;;8.90;;
23498;SDS011;11926;48.120;11.562;2023-05-07T00:58:02;12.13;;;9.02;;
23498;SDS011;11926;48.120;11.562;2023-05-07T01:00:50;11.70;;;8.88;;
23498;SDS011;11926;48.120;11.562;2023-05-07T01:03:37;12.35;;;9.43;;
23498;SDS011;11926;48.120;11.562;2023-05-07T01:06:25;14.75;;;9.75;;
23498;SDS011;11926;48.120;11.562;2023-05-07T01:09:13;14.55;;;8.98;;
23498;SDS011;11926;48.120;11.562;2023-05-07T01:12:01;13.55;;;9.25;;
23498;SDS011;11926;48.120;11.562;2023-05-07T01:14:51;13.00;;;9.60;;
23498;SDS011;11926;48.120;11.562;2023-05-07T01:17:39;15.18;;;9.80;;
23498;SDS011;11926;48.120;11.562;2023-05-07T01:20:41;13.87;;;9.00;;
23498;SDS011;11926;48.120;11.562;2023-05-07T01:23:30;13.85;;;9.50;;
23498;SDS011;11926;48.120;11.562;2023-05-07T01:26:17;15.93;;;10.93;;
23498;SDS011;11926;48.120;11.562;2023-05-07T01:29:05;15.02;;;9.98;;
23498;SDS011;11926;48.120;11.562;2023-05-07T01:31:52;18.75;;;9.40;;
23498;SDS011;11926;48.120;11.562;2023-05-07T01:34:42;11.90;;;9.20;;
23498;SDS011;11926;48.120;11.562;2023-05-07T01:37:31;16.50;;;10.30;;
23498;SDS011;11926;48.120;11.562;2023-05-07T01:40:20;15.13;;;9.68;;
23498;SDS011;11926;48.120;11.562;2023-05-07T01:43:09;14.43;;;10.60;;
23498;SDS011;11926;48.120;11.562;2023-05-07T01:45:57;11.65;;;9.65;;
23498;SDS011;11926;48.120;11.562;2023-05-07T01:48:46;12.00;;;10.02;;
23498;SDS011;11926;48.120;11.562;2023-05-07T01:51:33;13.93;;;9.52;;
23498;SDS011;11926;48.120;11.562;2023-05-07T01:54:24;11.43;;;9.57;;
23498;SDS011;11926;48.120;11.562;2023-05-07T02:00:04;14.13;;;10.00;;
23498;SDS011;11926;48.120;11.562;2023-05-07T02:02:59;10.95;;;9.50;;
23498;SDS011;11926;48.120;11.562;2023-05-07T02:05:57;12.88;;;10.38;;
23498;SDS011;11926;48.120;11.562;2023-05-07T02:08:54;13.30;;;9.07;;
23498;SDS011;11926;48.120;11.562;2023-05-07T02:11:42;14.38;;;9.88;;
23498;SDS011;11926;48.120;11.562;2023-05-07T02:14:32;15.82;;;10.30;;
23498;SDS011;11926;48.120;11.562;2023-05-07T02:17:19;13.98;;;9.98;;
23498;SDS011;11926;48.120;11.562;2023-05-07T02:20:07;14.45;;;10.07;;
23498;SDS011;11926;48.120;11.562;2023-05-07T02:22:59;13.43;;;8.88;;
23498;SDS011;11926;48.120;11.562;2023-05-07T02:25:48;16.75;;;9.68;;
23498;SDS011;11926;48.120;11.562;2023-05-07T02:28:36;13.23;;;9.73;;
23498;SDS011;11926;48.120;11.562;2023-05-07T02:31:25;13.93;;;8.85;;
23498;SDS011;11926;48.120;11.562;2023-05-07T02:34:12;13.85;;;9.40;;
23498;SDS011;11926;48.120;11.562;2023-05-07T02:37:00;11.73;;;9.40;;
23498;SDS011;11926;48.120;11.562;2023-05-07T02:39:47;16.02;;;9.93;;
23498;SDS011;11926;48.120;11.562;2023-05-07T02:42:34;13.23;;;9.48;;
23498;SDS011;11926;48.120;11.562;2023-05-07T02:45:21;15.38;;;9.43;;
23498;SDS011;11926;48.120;11.562;2023-05-07T02:48:13;13.73;;;9.05;;
23498;SDS011;11926;48.120;11.562;2023-05-07T02:51:00;13.65;;;8.95;;
23498;SDS011;11926;48.120;11.562;2023-05-07T02:53:49;13.30;;;9.75;;
23498;SDS011;11926;48.120;11.562;2023-05-07T02:56:36;14.10;;;9.70;;
23498;SDS011;11926;48.120;11.562;2023-05-07T02:59:24;15.15;;;10.82;;
23498;SDS011;11926;48.120;11.562;2023-05-07T03:02:12;13.60;;;9.75;;
23498;SDS011;11926;48.120;11.562;2023-05-07T03:05:00;15.65;;;10.40;;
23498;SDS011;11926;48.120;11.562;2023-05-07T03:07:47;15.55;;;9.95;;
23498;SDS011;11926;48.120;11.562;2023-05-07T03:10:34;15.50;;;9.98;;
23498;SDS011;11926;48.120;11.562;2023-05-07T03:13:22;13.98;;;9.40;;
23498;SDS011;11926;48.120;11.562;2023-05-07T03:16:10;12.98;;;9.48;;
23498;SDS011;11926;48.120;11.562;2023-05-07T03:18:58;14.73;;;9.23;;
23498;SDS011;11926;48.120;11.562;2023-05-07T03:21:49;11.65;;;9.27;;
23498;SDS011;11926;48.120;11.562;2023-05-07T03:24:36;13.68;;;9.00;;
23498;SDS011;11926;48.120;11.562;2023-05-07T03:27:23;11.50;;;8.35;;
23498;SDS011;11926;48.120;11.562;2023-05-07T03:30:12;13.63;;;8.88;;
23498;SDS011;11926;48.120;11.562;2023-05-07T03:32:59;11.52;;;8.27;;
23498;SDS011;11926;48.120;11.562;2023-05-07T03:35:46;10.00;;;8.32;;
23498;SDS011;11926;48.120;11.562;2023-05-07T03:38:39;13.48;;;8.70;;
23498;SDS011;11926;48.120;11.562;2023-05-07T03:41:26;15.13;;;8.20;;
23498;SDS011;11926;48.120;11.562;2023-05-07T03:44:14;13.20;;;9.05;;
23498;SDS011;11926;48.120;11.562;2023-05-07T03:47:03;13.00;;;8.65;;
23498;SDS011;11926;48.120;11.562;2023-05-07T03:49:50;12.52;;;7.75;;
23498;SDS011;11926;48.120;11.562;2023-05-07T03:52:42;11.68;;;8.07;;
23498;SDS011;11926;48.120;11.562;2023-05-07T03:55:32;11.93;;;8.43;;
23498;SDS011;11926;48.120;11.562;2023-05-07T03:58:19;11.32;;;7.90;;
23498;SDS011;11926;48.120;11.562;2023-05-07T04:01:07;10.35;;;7.93;;
23498;SDS011;11926;48.120;11.562;2023-05-07T04:03:54;12.25;;;8.35;;
23498;SDS011;11926;48.120;11.562;2023-05-07T04:06:42;11.15;;;8.13;;
23498;SDS011;11926;48.120;11.562;2023-05-07T04:09:30;12.25;;;8.63;;
23498;SDS011;11926;48.120;11.562;2023-05-07T04:12:19;16.52;;;9.20;;
23498;SDS011;11926;48.120;11.562;2023-05-07T04:15:06;13.07;;;9.02;;
23498;SDS011;11926;48.120;11.562;2023-05-07T04:17:54;14.52;;;8.07;;
23498;SDS011;11926;48.120;11.562;2023-05-07T04:20:43;13.05;;;8.15;;
23498;SDS011;11926;48.120;11.562;2023-05-07T04:23:32;10.57;;;7.38;;
23498;SDS011;11926;48.120;11.562;2023-05-07T04:26:22;11.35;;;7.55;;
23498;SDS011;11926;48.120;11.562;2023-05-07T04:29:11;9.40;;;7.55;;
23498;SDS011;11926;48.120;11.562;2023-05-07T04:31:58;13.80;;;7.53;;
23498;SDS011;11926;48.120;11.562;2023-05-07T04:34:46;13.35;;;7.93;;
23498;SDS011;11926;48.120;11.562;2023-05-07T04:37:33;13.75;;;7.57;;
23498;SDS011;11926;48.120;11.562;2023-05-07T04:40:22;12.10;;;8.60;;
23498;SDS011;11926;48.120;11.562;2023-05-07T04:43:09;12.95;;;7.78;;
23498;SDS011;11926;48.120;11.562;2023-05-07T04:48:52;15.02;;;8.52;;
23498;SDS011;11926;48.120;11.562;2023-05-07T04:51:39;11.50;;;8.80;;
23498;SDS011;11926;48.120;11.562;2023-05-07T04:54:31;12.90;;;8.82;;
23498;SDS011;11926;48.120;11.562;2023-05-07T04:57:17;14.20;;;8.27;;
23498;SDS011;11926;48.120;11.562;2023-05-07T05:00:06;12.88;;;8.05;;
23498;SDS011;11926;48.120;11.562;2023-05-07T05:02:58;11.07;;;8.32;;
23498;SDS011;11926;48.120;11.562;2023-05-07T05:05:48;12.98;;;8.27;;
23498;SDS011;11926;48.120;11.562;2023-05-07T05:08:38;10.35;;;7.63;;
23498;SDS011;11926;48.120;11.562;2023-05-07T05:11:27;9.38;;;7.30;;
23498;SDS011;11926;48.120;11.562;2023-05-07T05:14:14;13.52;;;8.85;;
23498;SDS011;11926;48.120;11.562;2023-05-07T05:17:01;10.88;;;8.27;;
23498;SDS011;11926;48.120;11.562;2023-05-07T05:19:50;9.00;;;7.82;;
23498;SDS011;11926;48.120;11.562;2023-05-07T05:22:37;10.77;;;7.30;;
23498;SDS011;11926;48.120;11.562;2023-05-07T05:25:26;12.80;;;7.85;;
23498;SDS011;11926;48.120;11.562;2023-05-07T05:28:15;9.10;;;6.55;;
23498;SDS011;11926;48.120;11.562;2023-05-07T05:31:02;11.05;;;7.03;;
23498;SDS011;11926;48.120;11.562;2023-05-07T05:33:53;7.70;;;6.15;;
23498;SDS011;11926;48.120;11.562;2023-05-07T05:36:42;7.35;;;5.57;;
23498;SDS011;11926;48.120;11.562;2023-05-07T05:39:31;7.50;;;5.28;;
23498;SDS011;11926;48.120;11.562;2023-05-07T05:42:19;8.25;;;5.50;;
23498;SDS011;11926;48.120;11.562;2023-05-07T05:45:07;8.98;;;6.07;;
23498;SDS011;11926;48.120;11.562;2023-05-07T05:47:56;12.77;;;5.47;;
23498;SDS011;11926;48.120;11.562;2023-05-07T05:50:44;10.85;;;5.55;;
23498;SDS011;11926;48.120;11.562;2023-05-07T05:53:35;7.47;;;5.13;;
23498;SDS011;11926;48.120;11.562;2023-05-07T05:56:23;10.27;;;5.35;;
23498;SDS011;11926;48.120;11.562;2023-05-07T05:59:10;7.15;;;4.72;;
23498;SDS011;11926;48.120;11.562;2023-05-07T06:01:59;7.97;;;4.45;;
23498;SDS011;11926;48.120;11.562;2023-05-07T06:04:46;8.18;;;5.20;;
23498;SDS011;11926;48.120;11.562;2023-05-07T06:07:37;5.32;;;4.40;;
23498;SDS011;11926;48.120;11.562;2023-05-07T06:10:26;9.68;;;4.55;;
23498;SDS011;11926;48.120;11.562;2023-05-07T06:13:13;7.55;;;4.63;;
23498;SDS011;11926;48.120;11.562;2023-05-07T06:16:01;5.38;;;4.30;;
23498;SDS011;11926;48.120;11.562;2023-05-07T06:18:48;8.82;;;5.03;;
23498;SDS011;11926;48.120;11.562;2023-05-07T06:21:35;7.95;;;4.78;;
23498;SDS011;11926;48.120;11.562;2023-05-07T06:24:22;10.48;;;5.20;;
23498;SDS011;11926;48.120;11.562;2023-05-07T06:27:12;7.93;;;4.72;;
23498;SDS011;11926;48.120;11.562;2023-05-07T06:30:01;9.00;;;4.90;;
23498;SDS011;11926;48.120;11.562;2023-05-07T06:32:48;7.88;;;4.28;;
23498;SDS011;11926;48.120;11.562;2023-05-07T06:35:37;8.77;;;4.00;;
23498;SDS011;11926;48.120;11.562;2023-05-07T06:38:24;6.63;;;4.18;;
23498;SDS011;11926;48.120;11.562;2023-05-07T06:41:12;7.03;;;3.78;;
23498;SDS011;11926;48.120;11.562;2023-05-07T06:44:01;4.65;;;3.28;;
23498;SDS011;11926;48.120;11.562;2023-05-07T06:46:54;5.53;;;3.45;;
23498;SDS011;11926;48.120;11.562;2023-05-07T06:49:41;4.57;;;3.20;;
23498;SDS011;11926;48.120;11.562;2023-05-07T06:52:33;6.20;;;3.45;;
23498;SDS011;11926;48.120;11.562;2023-05-07T06:55:23;3.97;;;2.83;;
23498;SDS011;11926;48.120;11.562;2023-05-07T06:58:12;4.38;;;3.25;;
23498;SDS011;11926;48.120;11.562;2023-05-07T07:01:01;5.60;;;3.15;;
23498;SDS011;11926;48.120;11.562;2023-05-07T07:03:49;5.50;;;2.95;;
23498;SDS011;11926;48.120;11.562;2023-05-07T07:06:38;6.80;;;3.60;;
23498;SDS011;11926;48.120;11.562;2023-05-07T07:09:28;5.72;;;3.47;;
23498;SDS011;11926;48.120;11.562;2023-05-07T07:12:18;7.07;;;3.28;;
23498;SDS011;11926;48.120;11.562;2023-05-07T07:15:06;10.13;;;3.58;;
23498;SDS011;11926;48.120;11.562;2023-05-07T07:17:54;6.50;;;3.40;;
23498;SDS011;11926;48.120;11.562;2023-05-07T07:20:42;5.55;;;3.20;;
23498;SDS011;11926;48.120;11.562;2023-05-07T07:23:31;6.80;;;3.30;;
23498;SDS011;11926;48.120;11.562;2023-05-07T07:26:19;8.45;;;3.25;;
23498;SDS011;11926;48.120;11.562;2023-05-07T07:29:07;5.63;;;3.15;;
23498;SDS011;11926;48.120;11.562;2023-05-07T07:31:54;5.80;;;3.25;;
23498;SDS011;11926;48.120;11.562;2023-05-07T07:34:43;5.10;;;2.92;;
23498;SDS011;11926;48.120;11.562;2023-05-07T07:37:31;4.95;;;2.92;;
23498;SDS011;11926;48.120;11.562;2023-05-07T07:40:19;4.25;;;2.70;;
23498;SDS011;11926;48.120;11.562;2023-05-07T07:43:06;4.78;;;2.60;;
23498;SDS011;11926;48.120;11.562;2023-05-07T07:45:54;7.25;;;2.97;;
23498;SDS011;11926;48.120;11.562;2023-05-07T07:48:42;5.35;;;2.85;;
23498;SDS011;11926;48.120;11.562;2023-05-07T07:51:31;5.13;;;2.42;;
23498;SDS011;11926;48.120;11.562;2023-05-07T07:54:18;7.05;;;3.08;;
23498;SDS011;11926;48.120;11.562;2023-05-07T07:57:06;5.45;;;2.90;;
23498;SDS011;11926;48.120;11.562;2023-05-07T07:59:55;5.28;;;2.50;;
23498;SDS011;11926;48.120;11.562;2023-05-07T08:02:42;3.30;;;2.10;;
23498;SDS011;11926;48.120;11.562;2023-05-07T08:05:37;3.88;;;2.47;;
23498;SDS011;11926;48.120;11.562;2023-05-07T08:08:26;3.88;;;2.38;;
23498;SDS011;11926;48.120;11.562;2023-05-07T08:11:14;3.42;;;2.50;;
23498;SDS011;11926;48.120;11.562;2023-05-07T08:14:01;4.80;;;2.40;;
23498;SDS011;11926;48.120;11.562;2023-05-07T08:16:49;6.47;;;2.63;;
23498;SDS011;11926;48.120;11.562;2023-05-07T08:19:36;5.13;;;2.47;;
23498;SDS011;11926;48.120;11.562;2023-05-07T08:22:26;3.53;;;2.20;;
23498;SDS011;11926;48.120;11.562;2023-05-07T08:25:15;4.50;;;1.83;;
23498;SDS011;11926;48.120;11.562;2023-05-07T08:28:02;3.53;;;2.40;;
23498;SDS011;11926;48.120;11.562;2023-05-07T08:30:51;4.22;;;2.42;;
23498;SDS011;11926;48.120;11.562;2023-05-07T08:33:38;3.88;;;2.40;;
23498;SDS011;11926;48.120;11.562;2023-05-07T08:36:25;5.32;;;2.28;;
23498;SDS011;11926;48.120;11.562;2023-05-07T08:39:15;4.88;;;2.40;;
23498;SDS011;11926;48.120;11.562;2023-05-07T08:42:06;4.18;;;2.35;;
23498;SDS011;11926;48.120;11.562;2023-05-07T08:44:57;4.15;;;2.10;;
23498;SDS011;11926;48.120;11.562;2023-05-07T08:47:49;7.57;;;2.65;;
23498;SDS011;11926;48.120;11.562;2023-05-07T08:50:40;4.32;;;2.55;;
23498;SDS011;11926;48.120;11.562;2023-05-07T08:53:29;2.90;;;1.98;;
23498;SDS011;11926;48.120;11.562;2023-05-07T08:56:16;4.63;;;1.98;;
23498;SDS011;11926;48.120;11.562;2023-05-07T08:59:10;3.55;;;2.00;;
23498;SDS011;11926;48.120;11.562;2023-05-07T09:01:57;3.83;;;2.10;;
23498;SDS011;11926;48.120;11.562;2023-05-07T09:04:45;3.33;;;2.20;;
23498;SDS011;11926;48.120;11.562;2023-05-07T09:07:32;5.00;;;2.13;;
23498;SDS011;11926;48.120;11.562;2023-05-07T09:10:22;2.70;;;1.73;;
23498;SDS011;11926;48.120;11.562;2023-05-07T09:13:11;4.85;;;2.05;;
23498;SDS011;11926;48.120;11.562;2023-05-07T09:16:11;5.20;;;1.77;;
23498;SDS011;11926;48.120;11.562;2023-05-07T09:19:02;5.70;;;1.98;;
23498;SDS011;11926;48.120;11.562;2023-05-07T09:21:57;4.63;;;2.25;;
23498;SDS011;11926;48.120;11.562;2023-05-07T09:24:52;4.60;;;1.60;;
23498;SDS011;11926;48.120;11.562;2023-05-07T09:27:43;3.33;;;1.50;;
23498;SDS011;11926;48.120;11.562;2023-05-07T09:30:31;3.55;;;1.60;;
23498;SDS011;11926;48.120;11.562;2023-05-07T09:33:24;4.28;;;1.67;;
23498;SDS011;11926;48.120;11.562;2023-05-07T09:36:16;3.63;;;1.83;;
23498;SDS011;11926;48.120;11.562;2023-05-07T09:39:04;6.00;;;1.67;;
23498;SDS011;11926;48.120;11.562;2023-05-07T09:41:51;3.55;;;1.48;;
23498;SDS011;11926;48.120;11.562;2023-05-07T09:44:48;2.97;;;1.50;;
23498;SDS011;11926;48.120;11.562;2023-05-07T09:47:39;3.40;;;1.95;;
23498;SDS011;11926;48.120;11.562;2023-05-07T09:50:35;4.20;;;1.80;;
23498;SDS011;11926;48.120;11.562;2023-05-07T09:53:29;2.83;;;1.95;;
23498;SDS011;11926;48.120;11.562;2023-05-07T09:56:19;4.15;;;1.70;;
23498;SDS011;11926;48.120;11.562;2023-05-07T09:59:09;3.15;;;1.65;;
23498;SDS011;11926;48.120;11.562;2023-05-07T10:01:59;4.25;;;1.85;;
23498;SDS011;11926;48.120;11.562;2023-05-07T10:04:53;2.38;;;1.60;;
23498;SDS011;11926;48.120;11.562;2023-05-07T10:07:48;4.45;;;2.10;;
23498;SDS011;11926;48.120;11.562;2023-05-07T10:10:39;4.22;;;2.17;;
23498;SDS011;11926;48.120;11.562;2023-05-07T10:13:30;2.47;;;1.58;;
23498;SDS011;11926;48.120;11.562;2023-05-07T10:16:20;4.38;;;2.10;;
23498;SDS011;11926;48.120;11.562;2023-05-07T10:19:08;4.80;;;1.73;;
23498;SDS011;11926;48.120;11.562;2023-05-07T10:21:59;7.55;;;1.90;;
23498;SDS011;11926;48.120;11.562;2023-05-07T10:24:57;3.58;;;2.30;;
23498;SDS011;11926;48.120;11.562;2023-05-07T10:27:51;3.15;;;1.80;;
23498;SDS011;11926;48.120;11.562;2023-05-07T10:30:47;3.08;;;2.03;;
23498;SDS011;11926;48.120;11.562;2023-05-07T10:33:44;6.03;;;2.00;;
23498;SDS011;11926;48.120;11.562;2023-05-07T10:36:36;4.40;;;1.92;;
23498;SDS011;11926;48.120;11.562;2023-05-07T10:39:25;4.55;;;2.85;;
23498;SDS011;11926;48.120;11.562;2023-05-07T10:42:16;2.85;;;1.80;;
23498;SDS011;11926;48.120;11.562;2023-05-07T10:45:12;3.42;;;1.92;;
23498;SDS011;11926;48.120;11.562;2023-05-07T10:48:07;7.18;;;2.20;;
23498;SDS011;11926;48.120;11.562;2023-05-07T10:54:18;3.67;;;1.63;;
23498;SDS011;11926;48.120;11.562;2023-05-07T11:10:09;4.53;;;1.90;;
23498;SDS011;11926;48.120;11.562;2023-05-07T11:13:08;5.57;;;2.67;;
23498;SDS011;11926;48.120;11.562;2023-05-07T11:16:03;4.28;;;1.95;;
23498;SDS011;11926;48.120;11.562;2023-05-07T11:18:57;5.53;;;2.40;;
23498;SDS011;11926;48.120;11.562;2023-05-07T11:21:51;5.82;;;2.08;;
23498;SDS011;11926;48.120;11.562;2023-05-07T11:24:54;3.45;;;2.05;;
23498;SDS011;11926;48.120;11.562;2023-05-07T11:27:41;5.13;;;2.10;;
23498;SDS011;11926;48.120;11.562;2023-05-07T11:30:31;2.65;;;1.77;;
23498;SDS011;11926;48.120;11.562;2023-05-07T11:33:18;4.70;;;2.40;;
23498;SDS011;11926;48.120;11.562;2023-05-07T11:36:08;4.03;;;2.25;;
23498;SDS011;11926;48.120;11.562;2023-05-07T11:39:02;5.03;;;2.53;;
23498;SDS011;11926;48.120;11.562;2023-05-07T11:41:50;3.67;;;2.35;;
23498;SDS011;11926;48.120;11.562;2023-05-07T11:44:40;4.93;;;2.03;;
23498;SDS011;11926;48.120;11.562;2023-05-07T11:47:48;5.15;;;2.70;;
23498;SDS011;11926;48.120;11.562;2023-05-07T11:50:35;10.43;;;3.10;;
23498;SDS011;11926;48.120;11.562;2023-05-07T11:53:24;4.57;;;2.75;;
23498;SDS011;11926;48.120;11.562;2023-05-07T11:56:12;3.65;;;2.60;;
23498;SDS011;11926;48.120;11.562;2023-05-07T11:59:01;3.30;;;2.10;;
23498;SDS011;11926;48.120;11.562;2023-05-07T12:01:48;3.92;;;2.30;;
23498;SDS011;11926;48.120;11.562;2023-05-07T12:04:37;3.50;;;2.20;;
23498;SDS011;11926;48.120;11.562;2023-05-07T12:07:25;3.63;;;2.30;;
23498;SDS011;11926;48.120;11.562;2023-05-07T12:10:12;5.35;;;3.00;;
23498;SDS011;11926;48.120;11.562;2023-05-07T12:13:00;5.13;;;2.83;;
23498;SDS011;11926;48.120;11.562;2023-05-07T12:15:49;4.40;;;2.33;;
23498;SDS011;11926;48.120;11.562;2023-05-07T12:18:37;4.28;;;2.60;;
23498;SDS011;11926;48.120;11.562;2023-05-07T12:21:26;3.53;;;2.30;;
23498;SDS011;11926;48.120;11.562;2023-05-07T12:24:14;3.78;;;2.50;;
23498;SDS011;11926;48.120;11.562;2023-05-07T12:27:01;5.18;;;2.72;;
23498;SDS011;11926;48.120;11.562;2023-05-07T12:29:49;4.75;;;2.53;;
23498;SDS011;11926;48.120;11.562;2023-05-07T12:32:37;4.38;;;2.80;;
23498;SDS011;11926;48.120;11.562;2023-05-07T12:35:27;3.65;;;2.20;;
23498;SDS011;11926;48.120;11.562;2023-05-07T12:38:16;6.25;;;2.42;;
23498;SDS011;11926;48.120;11.562;2023-05-07T12:41:05;4.53;;;2.20;;
23498;SDS011;11926;48.120;11.562;2023-05-07T12:43:56;3.78;;;2.30;;
23498;SDS011;11926;48.120;11.562;2023-05-07T12:46:43;3.65;;;2.13;;
23498;SDS011;11926;48.120;11.562;2023-05-07T12:49:34;3.90;;;2.60;;
23498;SDS011;11926;48.120;11.562;2023-05-07T12:52:24;5.00;;;2.38;;
23498;SDS011;11926;48.120;11.562;2023-05-07T12:55:13;4.03;;;2.00;;
23498;SDS011;11926;48.120;11.562;2023-05-07T12:58:01;4.63;;;1.90;;
23498;SDS011;11926;48.120;11.562;2023-05-07T13:00:49;5.15;;;2.20;;
23498;SDS011;11926;48.120;11.562;2023-05-07T13:03:37;6.40;;;2.30;;
23498;SDS011;11926;48.120;11.562;2023-05-07T13:06:25;4.65;;;2.28;;
23498;SDS011;11926;48.120;11.562;2023-05-07T13:09:12;4.53;;;1.92;;
23498;SDS011;11926;48.120;11.562;2023-05-07T13:12:01;4.20;;;1.70;;
23498;SDS011;11926;48.120;11.562;2023-05-07T13:14:48;2.55;;;1.80;;
23498;SDS011;11926;48.120;11.562;2023-05-07T13:17:36;5.45;;;2.45;;
23498;SDS011;11926;48.120;11.562;2023-05-07T13:20:23;10.00;;;2.15;;
23498;SDS011;11926;48.120;11.562;2023-05-07T13:23:10;4.07;;;1.80;;
23498;SDS011;11926;48.120;11.562;2023-05-07T13:25:57;3.13;;;2.30;;
23498;SDS011;11926;48.120;11.562;2023-05-07T13:28:52;3.95;;;1.77;;
23498;SDS011;11926;48.120;11.562;2023-05-07T13:31:40;3.83;;;1.60;;
23498;SDS011;11926;48.120;11.562;2023-05-07T13:34:29;5.15;;;1.90;;
23498;SDS011;11926;48.120;11.562;2023-05-07T13:37:17;2.33;;;1.40;;
23498;SDS011;11926;48.120;11.562;2023-05-07T13:40:06;6.38;;;2.25;;
23498;SDS011;11926;48.120;11.562;2023-05-07T13:42:56;4.57;;;2.10;;
23498;SDS011;11926;48.120;11.562;2023-05-07T13:45:46;3.83;;;1.58;;
23498;SDS011;11926;48.120;11.562;2023-05-07T13:48:33;3.40;;;1.63;;
23498;SDS011;11926;48.120;11.562;2023-05-07T13:51:20;5.20;;;1.70;;
23498;SDS011;11926;48.120;11.562;2023-05-07T13:54:07;11.18;;;6.10;;
23498;SDS011;11926;48.120;11.562;2023-05-07T13:56:55;3.47;;;1.85;;
23498;SDS011;11926;48.120;11.562;2023-05-07T13:59:42;3.65;;;1.83;;
23498;SDS011;11926;48.120;11.562;2023-05-07T14:02:30;4.47;;;1.98;;
23498;SDS011;11926;48.120;11.562;2023-05-07T14:05:18;2.50;;;1.50;;
23498;SDS011;11926;48.120;11.562;2023-05-07T14:08:07;2.85;;;1.50;;
23498;SDS011;11926;48.120;11.562;2023-05-07T14:10:54;3.85;;;1.90;;
23498;SDS011;11926;48.120;11.562;2023-05-07T14:13:42;2.47;;;1.50;;
23498;SDS011;11926;48.120;11.562;2023-05-07T14:16:29;4.22;;;1.60;;
23498;SDS011;11926;48.120;11.562;2023-05-07T14:19:18;4.90;;;1.40;;
23498;SDS011;11926;48.120;11.562;2023-05-07T14:22:05;6.72;;;2.00;;
23498;SDS011;11926;48.120;11.562;2023-05-07T14:24:52;5.03;;;1.98;;
23498;SDS011;11926;48.120;11.562;2023-05-07T14:27:59;4.18;;;1.60;;
23498;SDS011;11926;48.120;11.562;2023-05-07T14:30:46;4.38;;;2.10;;
23498;SDS011;11926;48.120;11.562;2023-05-07T14:33:33;3.30;;;1.75;;
23498;SDS011;11926;48.120;11.562;2023-05-07T14:36:22;3.75;;;1.83;;
23498;SDS011;11926;48.120;11.562;2023-05-07T14:39:11;3.40;;;1.90;;
23498;SDS011;11926;48.120;11.562;2023-05-07T14:41:59;8.23;;;2.47;;
23498;SDS011;11926;48.120;11.562;2023-05-07T14:44:46;5.28;;;2.42;;
23498;SDS011;11926;48.120;11.562;2023-05-07T14:47:34;4.65;;;2.00;;
23498;SDS011;11926;48.120;11.562;2023-05-07T14:50:21;4.30;;;2.17;;
23498;SDS011;11926;48.120;11.562;2023-05-07T14:53:10;2.60;;;2.00;;
23498;SDS011;11926;48.120;11.562;2023-05-07T14:55:57;4.60;;;2.60;;
23498;SDS011;11926;48.120;11.562;2023-05-07T14:58:46;4.05;;;2.33;;
23498;SDS011;11926;48.120;11.562;2023-05-07T15:01:34;4.68;;;2.55;;
23498;SDS011;11926;48.120;11.562;2023-05-07T15:04:22;5.57;;;2.33;;
23498;SDS011;11926;48.120;11.562;2023-05-07T15:07:10;7.45;;;2.53;;
23498;SDS011;11926;48.120;11.562;2023-05-07T15:10:01;8.27;;;2.78;;
23498;SDS011;11926;48.120;11.562;2023-05-07T15:12:48;3.90;;;2.38;;
23498;SDS011;11926;48.120;11.562;2023-05-07T15:15:35;8.70;;;2.58;;
23498;SDS011;11926;48.120;11.562;2023-05-07T15:18:24;4.95;;;2.60;;
23498;SDS011;11926;48.120;11.562;2023-05-07T15:21:11;3.95;;;2.38;;
23498;SDS011;11926;48.120;11.562;2023-05-07T15:23:59;6.43;;;2.33;;
23498;SDS011;11926;48.120;11.562;2023-05-07T15:26:47;6.47;;;2.75;;
23498;SDS011;11926;48.120;11.562;2023-05-07T15:29:34;3.75;;;2.08;;
23498;SDS011;11926;48.120;11.562;2023-05-07T15:32:22;6.43;;;2.50;;
23498;SDS011;11926;48.120;11.562;2023-05-07T15:35:11;6.18;;;2.50;;
23498;SDS011;11926;48.120;11.562;2023-05-07T15:37:58;3.85;;;2.42;;
23498;SDS011;11926;48.120;11.562;2023-05-07T15:40:46;5.30;;;2.30;;
23498;SDS011;11926;48.120;11.562;2023-05-07T15:43:35;7.88;;;2.85;;
23498;SDS011;11926;48.120;11.562;2023-05-07T15:46:31;4.93;;;2.25;;
23498;SDS011;11926;48.120;11.562;2023-05-07T15:49:19;6.15;;;2.42;;
23498;SDS011;11926;48.120;11.562;2023-05-07T15:52:07;3.83;;;2.30;;
23498;SDS011;11926;48.120;11.562;2023-05-07T15:54:56;5.65;;;2.42;;
23498;SDS011;11926;48.120;11.562;2023-05-07T15:57:45;7.40;;;2.20;;
23498;SDS011;11926;48.120;11.562;2023-05-07T16:00:34;5.65;;;2.63;;
23498;SDS011;11926;48.120;11.562;2023-05-07T16:03:22;5.78;;;2.60;;
23498;SDS011;11926;48.120;11.562;2023-05-07T16:06:09;3.95;;;2.35;;
23498;SDS011;11926;48.120;11.562;2023-05-07T16:08:57;4.40;;;2.42;;
23498;SDS011;11926;48.120;11.562;2023-05-07T16:11:45;3.45;;;2.10;;
23498;SDS011;11926;48.120;11.562;2023-05-07T16:14:32;4.68;;;2.33;;
23498;SDS011;11926;48.120;11.562;2023-05-07T16:17:20;5.15;;;1.83;;
23498;SDS011;11926;48.120;11.562;2023-05-07T16:20:08;4.53;;;2.05;;
23498;SDS011;11926;48.120;11.562;2023-05-07T16:22:57;2.70;;;1.70;;
23498;SDS011;11926;48.120;11.562;2023-05-07T16:25:44;4.00;;;2.10;;
23498;SDS011;11926;48.120;11.562;2023-05-07T16:28:32;4.32;;;1.90;;
23498;SDS011;11926;48.120;11.562;2023-05-07T16:31:19;2.78;;;1.80;;
23498;SDS011;11926;48.120;11.562;2023-05-07T16:34:08;3.35;;;1.55;;
23498;SDS011;11926;48.120;11.562;2023-05-07T16:36:55;4.93;;;2.08;;
23498;SDS011;11926;48.120;11.562;2023-05-07T16:39:42;3.03;;;1.73;;
23498;SDS011;11926;48.120;11.562;2023-05-07T16:42:30;3.17;;;1.60;;
23498;SDS011;11926;48.120;11.562;2023-05-07T16:45:17;4.47;;;1.85;;
23498;SDS011;11926;48.120;11.562;2023-05-07T16:48:05;3.15;;;1.63;;
23498;SDS011;11926;48.120;11.562;2023-05-07T16:50:54;3.28;;;1.92;;
23498;SDS011;11926;48.120;11.562;2023-05-07T16:53:43;5.30;;;1.92;;
23498;SDS011;11926;48.120;11.562;2023-05-07T16:56:31;4.47;;;2.15;;
23498;SDS011;11926;48.120;11.562;2023-05-07T16:59:18;3.45;;;1.90;;
23498;SDS011;11926;48.120;11.562;2023-05-07T17:02:05;2.53;;;1.70;;